Time;durP1;ratioP1;P1;durP2;ratioP2;P2;SDS_P1;SDS_P2;PMS_P1;PMS_P2;Temp;Humidity;BMP_temperature;BMP_pressure;BME280_temperature;BME280_humidity;BME280_pressure;Samples;Min_cycle;Max_cycle;Signal;HPM_P1;HPM_P2
2021/12/09 00:01:58;;;;;;;34.35;15.73;;;0.90;99.90;;;;;;4990509;23;20037;-77
2021/12/09 00:04:03;;;;;;;24.08;14.43;;;0.90;99.90;;;;;;4990677;23;20042;-76
2021/12/09 00:06:05;;;;;;;31.17;15.27;;;0.90;99.90;;;;;;4990234;23;20098;-77
2021/12/09 00:08:06;;;;;;;28.92;16.15;;;0.80;99.90;;;;;;4989091;23;20019;-76
2021/12/09 00:10:08;;;;;;;28.75;15.23;;;0.80;99.90;;;;;;4990619;23;20015;-77
2021/12/09 00:12:09;;;;;;;32.90;14.57;;;0.70;99.90;;;;;;4989713;23;20079;-77
2021/12/09 00:14:21;;;;;;;30.45;14.52;;;0.70;99.90;;;;;;5012383;23;20486;-77
2021/12/09 00:16:22;;;;;;;27.02;14.80;;;0.70;99.90;;;;;;4990937;23;20469;-77
2021/12/09 00:18:24;;;;;;;27.52;15.15;;;0.80;99.90;;;;;;4990093;23;20019;-77
2021/12/09 00:20:25;;;;;;;29.77;15.52;;;0.80;99.90;;;;;;4990978;23;20014;-76
2021/12/09 00:22:27;;;;;;;30.38;15.50;;;0.80;99.90;;;;;;4988331;23;20697;-77
2021/12/09 00:24:28;;;;;;;26.38;13.98;;;0.80;99.90;;;;;;4989008;23;20019;-76
2021/12/09 00:26:28;;;;;;;31.05;14.73;;;0.80;99.90;;;;;;4990777;23;20029;-76
2021/12/09 00:28:29;;;;;;;27.90;15.32;;;0.70;99.90;;;;;;4988970;23;20727;-76
2021/12/09 00:30:31;;;;;;;29.65;14.20;;;0.80;99.90;;;;;;4988746;23;20495;-77
2021/12/09 00:32:31;;;;;;;30.40;15.20;;;0.80;99.90;;;;;;4990945;23;20018;-76
2021/12/09 00:34:35;;;;;;;31.42;15.55;;;0.80;99.90;;;;;;4988657;23;20011;-75
2021/12/09 00:36:42;;;;;;;;;;;0.80;99.90;;;;;;4990517;23;20015;-76
2021/12/09 00:38:43;;;;;;;26.10;13.52;;;0.70;99.90;;;;;;4990197;23;19916;-76
2021/12/09 00:40:44;;;;;;;24.35;13.20;;;0.60;99.90;;;;;;4988689;23;20047;-76
2021/12/09 00:42:45;;;;;;;31.05;14.57;;;0.60;99.90;;;;;;4990969;23;20023;-75
2021/12/09 00:44:45;;;;;;;26.23;14.43;;;0.50;99.90;;;;;;4988877;23;20110;-77
2021/12/09 00:46:46;;;;;;;28.67;14.93;;;0.40;99.90;;;;;;4990898;23;20026;-77
2021/12/09 00:48:46;;;;;;;29.83;15.20;;;0.40;99.90;;;;;;4990413;23;20020;-77
2021/12/09 00:50:47;;;;;;;29.05;15.18;;;0.30;99.90;;;;;;4990416;23;20098;-76
2021/12/09 00:52:48;;;;;;;31.52;14.82;;;0.30;99.90;;;;;;4988298;23;20023;-76
2021/12/09 00:54:49;;;;;;;28.58;13.38;;;0.30;99.90;;;;;;4990279;23;20333;-76
2021/12/09 00:56:50;;;;;;;32.22;14.75;;;0.20;99.90;;;;;;4988487;23;20026;-74
2021/12/09 00:58:51;;;;;;;29.90;15.77;;;0.40;99.90;;;;;;4990707;23;20015;-76
2021/12/09 01:00:53;;;;;;;24.83;13.77;;;0.40;99.90;;;;;;4987851;23;20019;-76
2021/12/09 01:02:54;;;;;;;27.73;14.98;;;0.40;99.90;;;;;;4990701;23;20015;-76
2021/12/09 01:04:54;;;;;;;29.17;13.02;;;0.40;99.90;;;;;;4989954;23;20242;-76
2021/12/09 01:06:55;;;;;;;27.80;13.75;;;0.40;99.90;;;;;;4989170;23;20027;-76
2021/12/09 01:08:57;;;;;;;28.63;14.35;;;0.60;99.90;;;;;;5010958;23;20022;-77
2021/12/09 01:10:57;;;;;;;23.05;13.68;;;0.70;99.90;;;;;;4989386;23;20094;-75
2021/12/09 01:12:58;;;;;;;35.38;14.52;;;0.70;99.90;;;;;;4989124;23;20026;-75
2021/12/09 01:14:59;;;;;;;26.23;14.68;;;0.90;99.90;;;;;;4985788;23;20471;-76
2021/12/09 01:17:00;;;;;;;23.75;13.77;;;1.00;99.90;;;;;;4989023;23;20618;-76
2021/12/09 01:19:00;;;;;;;30.45;14.07;;;1.10;99.90;;;;;;4987287;23;20100;-75
2021/12/09 01:21:01;;;;;;;39.15;16.83;;;1.10;99.90;;;;;;4985932;23;20012;-76
2021/12/09 01:23:03;;;;;;;32.38;13.85;;;1.10;99.90;;;;;;4988424;23;20011;-76
2021/12/09 01:25:05;;;;;;;30.35;15.52;;;1.00;99.90;;;;;;4976512;23;20412;-77
2021/12/09 01:27:06;;;;;;;28.23;14.63;;;0.90;99.90;;;;;;5011931;23;20059;-77
2021/12/09 01:29:16;;;;;;;31.90;12.88;;;0.80;99.90;;;;;;4990198;23;20011;-77
2021/12/09 01:31:23;;;;;;;23.63;12.85;;;0.90;99.90;;;;;;4990072;23;20015;-76
2021/12/09 01:33:24;;;;;;;28.88;14.25;;;1.10;99.90;;;;;;4987142;23;20074;-77
2021/12/09 01:35:33;;;;;;;31.13;14.23;;;1.30;99.90;;;;;;5008765;23;20025;-77
2021/12/09 01:37:34;;;;;;;31.40;14.77;;;1.30;99.90;;;;;;4985709;23;20011;-76
2021/12/09 01:39:35;;;;;;;25.92;14.30;;;1.40;99.90;;;;;;4985149;23;20276;-77
2021/12/09 01:41:35;;;;;;;27.55;13.65;;;1.40;99.90;;;;;;4988252;23;20551;-77
2021/12/09 01:43:36;;;;;;;23.35;13.90;;;1.50;99.90;;;;;;4985748;23;20153;-77
2021/12/09 01:45:37;;;;;;;19.83;10.05;;;1.60;99.90;;;;;;4988983;23;20030;-76
2021/12/09 01:47:37;;;;;;;23.27;12.52;;;1.60;99.90;;;;;;4989413;23;20428;-77
2021/12/09 01:49:38;;;;;;;25.25;13.77;;;1.60;99.90;;;;;;4991218;23;20117;-76
2021/12/09 01:51:41;;;;;;;25.05;12.18;;;1.60;99.90;;;;;;4991536;23;20074;-77
2021/12/09 01:53:42;;;;;;;24.77;13.52;;;1.60;99.90;;;;;;4991749;23;20019;-77
2021/12/09 01:55:43;;;;;;;25.20;13.27;;;1.60;99.90;;;;;;4991537;23;20021;-76
2021/12/09 01:57:47;;;;;;;23.40;12.27;;;1.60;99.90;;;;;;4989921;23;20026;-77
2021/12/09 01:59:49;;;;;;;25.95;13.30;;;1.60;99.90;;;;;;4991810;23;20075;-77
2021/12/09 02:01:50;;;;;;;32.10;16.67;;;1.60;99.90;;;;;;4991676;23;20019;-76
2021/12/09 02:03:51;;;;;;;26.90;12.55;;;1.60;99.90;;;;;;4991445;23;20031;-76
2021/12/09 02:05:53;;;;;;;26.02;13.07;;;1.40;99.90;;;;;;4991687;23;20019;-77
2021/12/09 02:07:54;;;;;;;25.77;13.25;;;1.30;99.90;;;;;;4991426;23;20059;-77
2021/12/09 02:09:55;;;;;;;32.00;13.68;;;1.30;99.90;;;;;;4987805;23;20108;-76
2021/12/09 02:11:56;;;;;;;25.55;13.18;;;1.30;99.90;;;;;;4991615;23;20079;-76
2021/12/09 02:13:57;;;;;;;22.27;12.77;;;1.30;99.90;;;;;;4991248;23;20019;-76
2021/12/09 02:15:58;;;;;;;24.25;13.27;;;1.30;99.90;;;;;;4992033;23;20019;-77
2021/12/09 02:17:58;;;;;;;27.05;14.68;;;1.40;99.90;;;;;;4991002;23;20066;-76
2021/12/09 02:20:01;;;;;;;21.98;12.15;;;1.40;99.90;;;;;;4991292;23;20075;-76
2021/12/09 02:22:01;;;;;;;21.10;11.60;;;1.40;99.90;;;;;;4989165;23;20094;-76
2021/12/09 02:24:06;;;;;;;26.23;13.43;;;1.40;99.90;;;;;;4991220;23;20385;-76
2021/12/09 02:26:07;;;;;;;29.35;12.65;;;1.40;99.90;;;;;;4991365;23;20070;-76
2021/12/09 02:28:08;;;;;;;26.00;12.43;;;1.40;99.90;;;;;;4990258;23;20499;-76
2021/12/09 02:30:10;;;;;;;23.52;14.00;;;1.30;99.90;;;;;;4990897;23;20015;-77
2021/12/09 02:32:10;;;;;;;23.00;12.82;;;1.40;99.90;;;;;;4991870;23;20393;-76
2021/12/09 02:34:14;;;;;;;27.73;13.90;;;1.40;99.90;;;;;;4991040;23;20095;-77
2021/12/09 02:36:14;;;;;;;26.33;13.25;;;1.50;99.90;;;;;;5012707;23;20011;-76
2021/12/09 02:38:15;;;;;;;26.42;11.73;;;1.40;99.90;;;;;;4988953;23;20476;-76
2021/12/09 02:40:16;;;;;;;39.30;13.05;;;1.40;99.90;;;;;;4989268;23;20889;-76
2021/12/09 02:42:17;;;;;;;19.83;11.18;;;1.50;99.90;;;;;;4991662;23;20011;-75
2021/12/09 02:44:20;;;;;;;28.27;12.75;;;1.50;99.90;;;;;;4989320;23;20024;-76
2021/12/09 02:46:24;;;;;;;28.38;12.05;;;1.50;99.90;;;;;;4991398;23;20050;-76
2021/12/09 02:48:24;;;;;;;20.75;9.23;;;1.50;99.90;;;;;;4991493;23;20007;-77
2021/12/09 02:50:25;;;;;;;23.83;11.30;;;1.50;99.90;;;;;;5013051;23;20042;-76
2021/12/09 02:52:26;;;;;;;22.55;12.82;;;1.70;99.90;;;;;;4989730;23;20072;-76
2021/12/09 02:54:27;;;;;;;20.95;10.65;;;1.70;99.90;;;;;;4989749;23;20043;-76
2021/12/09 02:56:28;;;;;;;24.17;10.68;;;1.80;99.90;;;;;;4989345;23;20035;-76
2021/12/09 02:58:28;;;;;;;19.92;8.98;;;1.70;99.90;;;;;;4991123;23;20008;-77
2021/12/09 03:00:30;;;;;;;20.70;10.20;;;1.80;99.90;;;;;;4990674;23;20098;-77
2021/12/09 03:02:30;;;;;;;20.65;9.55;;;1.90;99.90;;;;;;4989685;23;20742;-75
2021/12/09 03:04:59;;;;;;;21.52;10.80;;;1.90;99.90;;;;;;4991116;23;20026;-76
2021/12/09 03:06:59;;;;;;;22.40;10.95;;;1.80;99.90;;;;;;4985942;23;20015;-77
2021/12/09 03:09:04;;;;;;;19.98;9.90;;;1.90;99.90;;;;;;4989148;23;20019;-77
2021/12/09 03:11:07;;;;;;;18.70;11.75;;;1.90;99.90;;;;;;5013056;23;20018;-77
2021/12/09 03:13:10;;;;;;;19.17;11.48;;;1.90;99.90;;;;;;4988709;23;20023;-77
2021/12/09 03:15:11;;;;;;;24.50;12.65;;;1.90;99.90;;;;;;4991603;23;20018;-77
2021/12/09 03:17:11;;;;;;;25.02;10.13;;;1.80;99.90;;;;;;4989369;23;20121;-77
2021/12/09 03:19:12;;;;;;;31.33;12.00;;;1.80;99.90;;;;;;4991256;23;20015;-76
2021/12/09 03:21:15;;;;;;;22.17;10.55;;;1.70;99.90;;;;;;4990878;23;20011;-77
2021/12/09 03:23:15;;;;;;;24.38;11.20;;;1.70;99.90;;;;;;4990962;23;20011;-76
2021/12/09 03:25:18;;;;;;;22.95;12.65;;;1.70;99.90;;;;;;4990894;23;20095;-76
2021/12/09 03:27:19;;;;;;;21.48;10.38;;;1.70;99.90;;;;;;4991034;23;20082;-77
2021/12/09 03:29:21;;;;;;;23.23;10.80;;;1.60;99.90;;;;;;4990740;23;20022;-76
2021/12/09 03:31:22;;;;;;;23.35;11.98;;;1.60;99.90;;;;;;4991047;23;20086;-77
2021/12/09 03:33:23;;;;;;;27.15;11.35;;;1.60;99.90;;;;;;4991066;23;20354;-76
2021/12/09 03:35:23;;;;;;;21.58;10.70;;;1.50;99.90;;;;;;4991092;23;20021;-77
2021/12/09 03:37:27;;;;;;;23.95;10.68;;;1.50;99.90;;;;;;4991248;23;20027;-77
2021/12/09 03:39:30;;;;;;;;;;;1.50;99.90;;;;;;4991030;23;20471;-77
2021/12/09 03:41:31;;;;;;;20.65;9.60;;;1.40;99.90;;;;;;4991349;23;20242;-77
2021/12/09 03:43:32;;;;;;;28.77;11.48;;;1.30;99.90;;;;;;4990485;23;20055;-77
2021/12/09 03:45:33;;;;;;;28.58;11.38;;;1.40;99.90;;;;;;4991033;23;20042;-76
2021/12/09 03:47:34;;;;;;;23.08;11.02;;;1.30;99.90;;;;;;4988936;23;20428;-75
2021/12/09 03:49:36;;;;;;;33.88;11.57;;;1.30;99.90;;;;;;5013406;23;20106;-76
2021/12/09 03:51:37;;;;;;;23.35;11.65;;;1.20;99.90;;;;;;4990509;23;20011;-78
2021/12/09 03:53:38;;;;;;;26.08;11.57;;;1.20;99.90;;;;;;4991009;23;20026;-77
2021/12/09 03:55:39;;;;;;;27.58;11.77;;;1.10;99.90;;;;;;4989817;23;20098;-77
2021/12/09 03:57:40;;;;;;;29.90;12.13;;;1.10;99.90;;;;;;4991494;23;20021;-77
2021/12/09 03:59:42;;;;;;;25.27;11.18;;;1.00;99.90;;;;;;4990422;23;20094;-77
2021/12/09 04:01:45;;;;;;;25.73;12.25;;;1.00;99.90;;;;;;4991101;23;20019;-75
2021/12/09 04:03:45;;;;;;;27.02;11.13;;;0.90;99.90;;;;;;4990918;23;20487;-77
2021/12/09 04:05:48;;;;;;;27.23;12.60;;;0.90;99.90;;;;;;4990751;23;20018;-76
2021/12/09 04:07:48;;;;;;;27.55;12.50;;;1.10;99.90;;;;;;4990882;23;20015;-76
2021/12/09 04:09:49;;;;;;;30.27;12.75;;;1.00;99.90;;;;;;4990495;23;20078;-76
2021/12/09 04:11:51;;;;;;;34.35;14.25;;;0.80;99.90;;;;;;4990684;23;20015;-76
2021/12/09 04:13:52;;;;;;;24.75;12.27;;;0.70;99.90;;;;;;4990630;23;20036;-76
2021/12/09 04:15:52;;;;;;;27.98;12.65;;;0.50;99.90;;;;;;4991057;23;20023;-76
2021/12/09 04:17:53;;;;;;;33.25;13.63;;;0.30;99.90;;;;;;4991037;23;20034;-76
2021/12/09 04:19:54;;;;;;;27.35;14.00;;;0.20;99.90;;;;;;4990825;23;20015;-76
2021/12/09 04:21:55;;;;;;;32.78;13.30;;;0.10;99.90;;;;;;4989031;23;20095;-75
2021/12/09 04:23:55;;;;;;;25.63;12.77;;;0.00;99.90;;;;;;4990652;23;20470;-77
2021/12/09 04:25:57;;;;;;;27.75;14.07;;;0.00;99.90;;;;;;4990538;23;20047;-76
2021/12/09 04:27:58;;;;;;;29.35;14.48;;;0.00;99.90;;;;;;5013276;23;20404;-77
2021/12/09 04:29:59;;;;;;;32.35;13.73;;;-0.10;99.90;;;;;;4990772;23;20011;-77
2021/12/09 04:31:59;;;;;;;30.05;13.48;;;-0.10;99.90;;;;;;4991338;23;20027;-77
2021/12/09 04:34:00;;;;;;;29.65;13.63;;;-0.10;99.90;;;;;;4988488;23;20046;-76
2021/12/09 04:36:01;;;;;;;29.50;14.57;;;-0.20;99.90;;;;;;4990744;23;20122;-75
2021/12/09 04:38:02;;;;;;;40.85;16.45;;;-0.20;99.90;;;;;;5012183;23;20021;-76
2021/12/09 04:40:09;;;;;;;31.45;13.95;;;-0.10;99.90;;;;;;4990793;23;20432;-74
2021/12/09 04:42:09;;;;;;;31.90;16.05;;;-0.10;99.90;;;;;;4989829;23;20015;-77
2021/12/09 04:44:10;;;;;;;31.90;14.75;;;-0.10;99.90;;;;;;4990849;23;20360;-76
2021/12/09 04:46:11;;;;;;;35.10;14.07;;;-0.10;99.90;;;;;;4990184;23;20021;-76
2021/12/09 04:48:12;;;;;;;29.08;14.63;;;-0.20;99.90;;;;;;4989559;23;20522;-76
2021/12/09 04:50:13;;;;;;;25.00;15.95;;;-0.30;99.90;;;;;;4990648;23;20015;-75
2021/12/09 04:52:14;;;;;;;33.28;13.65;;;-0.40;99.90;;;;;;4991392;23;20019;-74
2021/12/09 04:54:15;;;;;;;19.90;11.32;;;-0.40;99.90;;;;;;4991059;23;20743;-75
2021/12/09 04:56:16;;;;;;;22.10;10.77;;;-0.30;99.90;;;;;;4990967;23;20455;-76
2021/12/09 04:58:16;;;;;;;29.27;11.30;;;0.00;99.90;;;;;;4990242;23;20313;-75
2021/12/09 05:00:20;;;;;;;28.15;12.73;;;0.30;99.90;;;;;;4990353;23;20015;-76
2021/12/09 05:02:30;;;;;;;23.30;10.82;;;0.60;99.90;;;;;;4991028;23;20872;-76
2021/12/09 05:04:31;;;;;;;26.30;11.57;;;0.80;99.90;;;;;;4988867;23;20091;-77
2021/12/09 05:06:32;;;;;;;36.28;12.13;;;0.80;99.90;;;;;;4988780;23;20016;-76
2021/12/09 05:08:33;;;;;;;32.22;10.75;;;1.00;99.90;;;;;;4990361;23;20016;-76
2021/12/09 05:10:54;;;;;;;23.77;10.68;;;1.10;99.90;;;;;;4990914;23;20091;-76
2021/12/09 05:12:54;;;;;;;18.38;9.13;;;1.10;99.90;;;;;;4988241;23;20355;-75
2021/12/09 05:14:55;;;;;;;20.33;10.00;;;1.10;99.90;;;;;;4988932;23;20020;-76
2021/12/09 05:16:55;;;;;;;21.58;9.20;;;1.20;99.90;;;;;;4991704;23;20055;-76
2021/12/09 05:18:58;;;;;;;26.48;10.00;;;1.20;99.90;;;;;;4993211;23;20582;-76
2021/12/09 05:21:00;;;;;;;19.90;9.95;;;1.10;99.90;;;;;;4991032;23;20063;-75
2021/12/09 05:23:01;;;;;;;22.35;9.70;;;1.00;99.90;;;;;;4992779;23;20070;-74
2021/12/09 05:25:01;;;;;;;28.58;11.55;;;1.00;99.90;;;;;;4991125;23;20886;-76
2021/12/09 05:27:02;;;;;;;23.58;9.68;;;1.20;99.90;;;;;;5015228;23;20029;-76
2021/12/09 05:29:03;;;;;;;22.80;10.15;;;1.30;99.90;;;;;;4993383;23;20019;-76
2021/12/09 05:33:24;;;;;;;27.75;11.05;;;1.20;99.90;;;;;;4992547;23;20459;-77
2021/12/09 05:35:25;;;;;;;21.92;10.77;;;1.10;99.90;;;;;;4991176;23;20136;-76
2021/12/09 05:37:27;;;;;;;19.80;10.32;;;1.10;99.90;;;;;;4992975;23;20010;-75
2021/12/09 05:39:28;;;;;;;22.42;10.70;;;1.00;99.90;;;;;;4992839;23;20011;-76
2021/12/09 05:41:33;;;;;;;21.52;10.32;;;1.00;99.90;;;;;;4993270;23;20043;-74
2021/12/09 05:43:34;;;;;;;23.02;11.23;;;1.00;99.90;;;;;;4992591;23;20031;-76
2021/12/09 05:45:35;;;;;;;23.55;10.43;;;1.00;99.90;;;;;;4989479;23;20384;-76
2021/12/09 05:47:35;;;;;;;24.65;10.20;;;0.90;99.90;;;;;;4992370;23;20067;-75
2021/12/09 05:49:39;;;;;;;24.13;9.45;;;0.90;99.90;;;;;;4993157;23;20026;-75
2021/12/09 05:51:41;;;;;;;31.63;9.80;;;0.90;99.90;;;;;;4992486;23;20025;-76
2021/12/09 05:53:42;;;;;;;23.27;8.68;;;0.90;99.90;;;;;;5015066;23;20046;-77
2021/12/09 05:55:44;;;;;;;19.10;10.57;;;1.00;99.90;;;;;;4990790;23;20027;-75
2021/12/09 05:57:44;;;;;;;20.60;9.80;;;1.00;99.90;;;;;;4993083;23;20134;-77
2021/12/09 05:59:45;;;;;;;22.08;10.50;;;1.10;99.90;;;;;;4992297;23;20024;-76
2021/12/09 06:01:46;;;;;;;18.35;9.35;;;1.10;99.90;;;;;;4992848;23;20073;-76
2021/12/09 06:03:46;;;;;;;18.63;9.45;;;1.20;99.90;;;;;;4992489;23;20527;-75
2021/12/09 06:05:49;;;;;;;22.25;9.25;;;1.30;99.90;;;;;;4993330;23;20022;-76
2021/12/09 06:07:50;;;;;;;23.48;11.52;;;1.20;99.90;;;;;;5015065;23;20029;-75
2021/12/09 06:09:50;;;;;;;24.50;11.27;;;1.10;99.90;;;;;;4993703;23;20019;-76
2021/12/09 06:11:51;;;;;;;24.45;11.88;;;1.00;99.90;;;;;;4990983;23;20015;-77
2021/12/09 06:13:53;;;;;;;26.98;11.25;;;1.00;99.90;;;;;;4993366;23;20093;-77
2021/12/09 06:15:53;;;;;;;24.33;11.73;;;0.90;99.90;;;;;;4991234;23;20060;-77
2021/12/09 06:17:54;;;;;;;22.35;12.52;;;0.80;99.90;;;;;;5000275;23;20535;-77
2021/12/09 06:19:54;;;;;;;27.13;11.30;;;0.80;99.90;;;;;;4993842;23;20019;-77
2021/12/09 06:21:55;;;;;;;25.70;11.40;;;0.80;99.90;;;;;;4991055;23;20015;-77
2021/12/09 06:23:59;;;;;;;21.73;12.07;;;0.80;99.90;;;;;;5014967;23;20030;-76
2021/12/09 06:26:00;;;;;;;24.95;11.15;;;0.90;99.90;;;;;;4993077;23;20449;-77
2021/12/09 06:28:01;;;;;;;22.63;10.88;;;0.90;99.90;;;;;;4990506;23;20015;-76
2021/12/09 06:30:01;;;;;;;28.15;12.43;;;0.90;99.90;;;;;;4990464;23;20015;-75
2021/12/09 06:32:03;;;;;;;25.70;10.80;;;1.00;99.90;;;;;;4991764;23;20352;-75
2021/12/09 06:34:04;;;;;;;24.40;10.80;;;1.00;99.90;;;;;;4991653;23;20094;-75
2021/12/09 06:36:05;;;;;;;26.52;10.52;;;1.00;99.90;;;;;;4990918;23;20080;-76
2021/12/09 06:38:11;;;;;;;22.98;9.68;;;1.00;99.90;;;;;;4990090;23;20023;-76
2021/12/09 06:40:15;;;;;;;20.02;9.50;;;1.10;99.90;;;;;;4990828;23;20401;-75
2021/12/09 06:42:17;;;;;;;17.67;8.57;;;1.10;99.90;;;;;;4989655;23;20423;-75
2021/12/09 06:44:18;;;;;;;15.93;9.75;;;1.20;99.90;;;;;;4991281;23;20531;-75
2021/12/09 06:46:18;;;;;;;24.58;9.27;;;1.20;99.90;;;;;;4991395;23;20020;-76
2021/12/09 06:48:19;;;;;;;23.08;9.20;;;1.10;99.90;;;;;;4992364;23;20039;-76
2021/12/09 06:50:20;;;;;;;25.23;9.95;;;1.20;99.90;;;;;;4991464;23;20098;-74
2021/12/09 06:52:22;;;;;;;25.02;10.70;;;1.10;99.90;;;;;;5014410;23;20085;-75
2021/12/09 06:54:23;;;;;;;22.77;9.68;;;1.10;99.90;;;;;;5013020;23;20580;-76
2021/12/09 06:56:25;;;;;;;23.13;9.18;;;1.10;99.90;;;;;;4990145;23;20015;-76
2021/12/09 06:58:25;;;;;;;18.65;9.13;;;1.10;99.90;;;;;;4989493;23;20056;-76
2021/12/09 07:00:30;;;;;;;31.42;9.65;;;1.10;99.90;;;;;;4991824;23;20710;-76
2021/12/09 07:02:31;;;;;;;25.02;10.32;;;1.00;99.90;;;;;;4991811;23;20023;-76
2021/12/09 07:04:31;;;;;;;24.27;9.50;;;1.00;99.90;;;;;;4991776;23;20051;-77
2021/12/09 07:06:32;;;;;;;22.88;9.55;;;1.00;99.90;;;;;;5013274;23;20317;-77
2021/12/09 07:08:36;;;;;;;22.45;10.07;;;1.00;99.90;;;;;;4989717;23;20019;-75
2021/12/09 07:10:36;;;;;;;19.83;10.55;;;1.00;99.90;;;;;;4990021;23;20483;-75
2021/12/09 07:12:38;;;;;;;26.00;9.93;;;0.90;99.90;;;;;;4991663;23;20019;-76
2021/12/09 07:14:39;;;;;;;19.95;8.77;;;0.90;99.90;;;;;;4991596;23;20015;-76
2021/12/09 07:16:40;;;;;;;23.23;9.55;;;1.00;99.90;;;;;;4990479;23;20515;-75
2021/12/09 07:18:40;;;;;;;22.48;10.10;;;1.00;99.90;;;;;;4989914;23;20027;-74
2021/12/09 07:20:41;;;;;;;21.27;9.02;;;1.00;99.90;;;;;;4991208;23;20019;-76
2021/12/09 07:22:42;;;;;;;24.75;9.85;;;1.00;99.90;;;;;;4990561;23;20027;-78
2021/12/09 07:24:43;;;;;;;21.30;9.02;;;1.00;99.90;;;;;;4991249;23;20043;-75
2021/12/09 07:26:43;;;;;;;15.25;8.98;;;1.00;99.90;;;;;;4991430;23;20023;-75
2021/12/09 07:28:44;;;;;;;19.63;10.10;;;1.00;99.90;;;;;;5012882;23;20105;-74
2021/12/09 07:30:45;;;;;;;23.45;10.65;;;1.00;99.90;;;;;;4991822;23;20542;-75
2021/12/09 07:32:46;;;;;;;22.75;11.30;;;1.00;99.90;;;;;;4989692;23;20584;-76
2021/12/09 07:34:47;;;;;;;24.27;10.82;;;1.00;99.90;;;;;;4990870;23;20026;-77
2021/12/09 07:36:48;;;;;;;30.67;12.50;;;1.00;99.90;;;;;;4991693;23;20019;-77
2021/12/09 07:38:49;;;;;;;24.23;10.73;;;1.10;99.90;;;;;;4966417;23;20019;-76
2021/12/09 07:40:50;;;;;;;24.10;9.43;;;1.10;99.90;;;;;;4991014;23;20047;-77
2021/12/09 07:42:51;;;;;;;32.95;10.43;;;1.10;99.90;;;;;;4991396;23;20576;-76
2021/12/09 07:44:52;;;;;;;22.75;9.73;;;1.10;99.90;;;;;;4990574;23;20507;-77
2021/12/09 07:46:54;;;;;;;20.80;11.23;;;1.10;99.90;;;;;;5013888;23;20110;-76
2021/12/09 07:48:54;;;;;;;21.08;9.00;;;1.10;99.90;;;;;;4991131;23;20138;-76
2021/12/09 07:50:55;;;;;;;24.88;10.45;;;1.10;99.90;;;;;;4991925;23;20106;-77
2021/12/09 07:52:56;;;;;;;23.27;8.75;;;1.10;99.90;;;;;;4990398;23;20737;-76
2021/12/09 07:54:56;;;;;;;19.85;9.27;;;1.20;99.90;;;;;;5013357;23;20119;-77
2021/12/09 07:56:57;;;;;;;26.30;10.25;;;1.10;99.90;;;;;;4989413;23;20040;-76
2021/12/09 07:58:58;;;;;;;19.50;10.60;;;1.10;99.90;;;;;;4991487;23;20133;-77
2021/12/09 08:00:59;;;;;;;22.65;10.40;;;1.10;99.90;;;;;;4991089;23;20054;-77
2021/12/09 08:03:01;;;;;;;14.43;7.97;;;1.10;99.90;;;;;;4988670;23;20019;-76
2021/12/09 08:05:01;;;;;;;18.92;8.70;;;1.10;99.90;;;;;;4988465;23;20327;-77
2021/12/09 08:07:02;;;;;;;18.80;7.63;;;1.30;99.90;;;;;;4990980;23;20026;-77
2021/12/09 08:09:04;;;;;;;25.15;9.80;;;1.30;99.90;;;;;;4990585;23;20253;-76
2021/12/09 08:11:07;;;;;;;17.80;10.00;;;1.40;99.90;;;;;;5013013;23;20015;-76
2021/12/09 08:13:08;;;;;;;22.40;9.43;;;1.40;99.90;;;;;;4988759;23;20389;-76
2021/12/09 08:15:11;;;;;;;19.35;10.07;;;1.40;99.90;;;;;;4988388;23;20470;-76
2021/12/09 08:17:45;;;;;;;23.85;9.90;;;1.40;99.90;;;;;;4991207;23;20023;-77
2021/12/09 08:19:46;;;;;;;19.33;9.68;;;1.40;99.90;;;;;;4990195;23;20449;-76
2021/12/09 08:21:47;;;;;;;33.15;10.20;;;1.50;99.90;;;;;;5012669;23;20011;-76
2021/12/09 08:23:47;;;;;;;21.50;10.65;;;1.40;99.90;;;;;;4989698;23;20451;-77
2021/12/09 08:25:49;;;;;;;23.50;9.88;;;1.40;99.90;;;;;;4990709;23;20038;-77
2021/12/09 08:27:50;;;;;;;26.50;11.05;;;1.50;99.90;;;;;;4990370;23;20467;-77
2021/12/09 08:29:51;;;;;;;24.30;12.63;;;1.70;99.90;;;;;;4991040;23;20019;-77
2021/12/09 08:31:52;;;;;;;25.80;10.70;;;1.80;99.90;;;;;;4990339;23;20015;-76
2021/12/09 08:33:53;;;;;;;21.02;10.10;;;1.90;99.90;;;;;;4990335;23;20504;-76
2021/12/09 08:35:54;;;;;;;24.33;11.15;;;2.10;99.90;;;;;;4990178;23;20038;-77
2021/12/09 08:37:57;;;;;;;27.20;11.05;;;2.20;99.90;;;;;;4988889;23;20022;-77
2021/12/09 08:39:58;;;;;;;;;;;2.30;99.90;;;;;;4990746;23;20022;-77
2021/12/09 08:41:59;;;;;;;17.92;10.07;;;2.30;99.90;;;;;;4988740;23;19909;-76
2021/12/09 08:43:59;;;;;;;23.95;10.23;;;2.40;99.90;;;;;;4990299;23;20019;-76
2021/12/09 08:46:00;;;;;;;23.23;9.52;;;2.40;99.90;;;;;;4988187;23;20019;-75
2021/12/09 08:48:01;;;;;;;24.67;11.30;;;2.50;99.90;;;;;;4988794;23;20094;-77
2021/12/09 08:50:03;;;;;;;23.52;11.10;;;2.50;99.90;;;;;;4987303;23;20027;-76
2021/12/09 08:52:04;;;;;;;21.13;9.77;;;2.50;99.90;;;;;;4990150;23;20487;-76
2021/12/09 08:54:06;;;;;;;25.27;11.82;;;2.50;99.90;;;;;;4990084;23;20151;-75
2021/12/09 08:56:06;;;;;;;22.77;11.35;;;2.60;99.90;;;;;;4989922;23;20118;-76
2021/12/09 08:58:08;;;;;;;20.92;11.90;;;2.60;99.90;;;;;;4990653;23;20117;-75
2021/12/09 09:00:12;;;;;;;21.85;10.50;;;2.70;99.90;;;;;;4988416;23;20051;-76
2021/12/09 09:02:14;;;;;;;20.48;10.68;;;2.80;99.90;;;;;;5012094;23;20015;-76
2021/12/09 09:04:15;;;;;;;21.25;9.60;;;2.80;99.90;;;;;;4990848;23;20011;-76
2021/12/09 09:06:16;;;;;;;23.83;10.98;;;2.90;99.90;;;;;;4989197;23;20090;-75
2021/12/09 09:08:17;;;;;;;28.40;11.63;;;2.90;99.90;;;;;;4990080;23;20015;-76
2021/12/09 09:10:20;;;;;;;23.10;12.05;;;3.00;99.90;;;;;;4988958;23;20018;-75
2021/12/09 09:12:21;;;;;;;23.20;11.55;;;3.00;99.90;;;;;;4990080;23;20024;-75
2021/12/09 09:14:22;;;;;;;17.27;8.70;;;3.00;99.90;;;;;;4989876;23;20022;-75
2021/12/09 09:16:22;;;;;;;18.98;9.65;;;3.00;99.90;;;;;;4990231;23;20069;-74
2021/12/09 09:18:23;;;;;;;36.65;11.88;;;3.10;99.90;;;;;;4990145;23;20412;-76
2021/12/09 09:20:27;;;;;;;25.52;11.18;;;3.10;99.90;;;;;;4988695;23;20025;-75
2021/12/09 09:22:28;;;;;;;20.83;10.93;;;3.10;99.90;;;;;;4990505;23;20019;-76
2021/12/09 09:24:29;;;;;;;19.15;8.70;;;3.00;99.90;;;;;;4990439;23;20444;-75
2021/12/09 09:26:31;;;;;;;28.73;10.13;;;3.10;99.90;;;;;;4988741;23;20356;-76
2021/12/09 09:28:31;;;;;;;13.98;8.80;;;3.10;99.90;;;;;;4990252;23;20019;-76
2021/12/09 09:30:36;;;;;;;21.55;11.15;;;3.20;99.90;;;;;;5012261;23;20886;-76
2021/12/09 09:32:37;;;;;;;14.63;9.50;;;3.20;99.90;;;;;;4985808;23;20016;-76
2021/12/09 09:34:38;;;;;;;22.60;10.65;;;3.30;99.90;;;;;;4989877;23;20106;-75
2021/12/09 09:36:44;;;;;;;26.80;13.20;;;3.20;99.90;;;;;;4989815;23;20467;-76
2021/12/09 09:38:45;;;;;;;24.90;11.27;;;3.20;99.90;;;;;;4990648;23;20019;-76
2021/12/09 09:40:59;;;;;;;26.77;12.75;;;3.20;99.90;;;;;;4990348;23;20027;-77
2021/12/09 09:43:04;;;;;;;21.75;11.13;;;3.30;99.90;;;;;;4988490;23;20015;-77
2021/12/09 09:45:07;;;;;;;19.02;11.60;;;3.30;99.90;;;;;;4989071;23;20906;-76
2021/12/09 09:47:08;;;;;;;22.23;10.20;;;3.30;99.90;;;;;;4989777;23;20011;-76
2021/12/09 09:49:10;;;;;;;20.17;10.68;;;3.30;99.90;;;;;;4988038;23;20023;-78
2021/12/09 09:51:11;;;;;;;20.92;10.13;;;3.30;99.90;;;;;;4991113;23;20054;-76
2021/12/09 09:53:12;;;;;;;18.88;9.88;;;3.30;99.90;;;;;;4987943;23;20356;-76
2021/12/09 09:55:20;;;;;;;24.63;11.32;;;3.30;99.90;;;;;;4990516;23;20015;-75
2021/12/09 09:57:22;;;;;;;22.52;10.48;;;3.30;99.90;;;;;;4987679;23;20066;-76
2021/12/09 09:59:22;;;;;;;19.77;10.90;;;3.40;99.90;;;;;;4990460;23;20019;-76
2021/12/09 10:01:25;;;;;;;20.13;10.18;;;3.60;99.90;;;;;;4990092;23;20079;-77
2021/12/09 10:03:30;;;;;;;16.35;8.82;;;3.80;99.90;;;;;;4991303;23;20499;-76
2021/12/09 10:05:36;;;;;;;19.83;9.82;;;3.90;99.90;;;;;;5012832;23;20022;-76
2021/12/09 10:07:37;;;;;;;22.25;9.93;;;3.90;99.90;;;;;;4989908;23;20041;-77
2021/12/09 10:09:38;;;;;;;21.52;10.82;;;3.90;99.90;;;;;;4989883;23;20400;-75
2021/12/09 10:11:39;;;;;;;17.40;11.32;;;3.90;99.90;;;;;;4990098;23;20011;-78
2021/12/09 10:13:42;;;;;;;21.10;9.68;;;3.80;99.90;;;;;;4991684;23;20134;-77
2021/12/09 10:15:50;;;;;;;15.10;9.45;;;3.90;99.90;;;;;;5013426;23;20011;-74
2021/12/09 10:17:51;;;;;;;14.02;10.07;;;3.90;99.90;;;;;;4991165;23;20035;-77
2021/12/09 10:19:58;;;;;;;14.18;9.35;;;4.10;99.90;;;;;;4988807;23;20023;-75
2021/12/09 10:22:12;;;;;;;21.15;11.40;;;4.10;99.90;;;;;;5013393;23;20030;-75
2021/12/09 10:24:13;;;;;;;16.67;9.27;;;4.20;99.90;;;;;;4990511;23;20039;-76
2021/12/09 10:26:22;;;;;;;20.20;11.50;;;4.20;99.90;;;;;;4991356;23;20011;-76
2021/12/09 10:28:25;;;;;;;16.95;8.68;;;4.30;99.90;;;;;;4990472;23;20086;-76
2021/12/09 10:30:27;;;;;;;28.75;11.05;;;4.30;99.90;;;;;;4990725;23;20011;-75
2021/12/09 10:32:31;;;;;;;19.50;9.77;;;4.30;99.90;;;;;;4991582;23;20022;-76